Hlavní strana
METAR-TAF:

METAR-TAF

Letiště :

Tahlequah, Oklahoma, Spojené státy americké

zeměpisná šířka: 35-55-44N, zeměpisná délka: 095-00-16W, výška: 266 m

Aktuální stav počasí

Zpráva byla vytvořena před 18 minutami, v 01:55 UTC
Severoseverozápadní vítr 4 kt
Teplota 5°C
Vlhkost vzduchu 81%
Tlak 1018 hPa
Viditelnost: 16.1 km
Oblačno až skoro zataženo ve výšce 1500 ft
Zataženo ve výšce 2200 ft

METAR: KTQH 260155Z AUTO 34004KT 10SM BKN015 OVC022 05/02 A3006 RMK AO2

Čas: 20:13 (02:13 UTC)


TAF: chybějící

Stav a předpovědi počasí z více než 4 000 letišť (zprávy METAR a TAF).

Červené a žluté tečky na mapě představují dostupné meteorologické stanice.

Když kurzor umístíte na tečku, zobrazí se název stanice.

Pak kliknutím zobrazíte stav a předpověď počasí.

Chcete-li změnit mapu, kliknutím na zelené tlačítko se znaménkem +mapu přiblížíte, kliknutím na zelené tlačítko se znaménkem – mapu oddálíte a kliknutím na zelené šipky přejdete na sousední mapy.


METAR-TAF: